sensor_id;sensor_type;location;lat;lon;timestamp;pressure;altitude;pressure_sealevel;temperature;humidity
43683;BME280;29285;52.128;21.060;2022-12-05T00:04:37;101277.45;;;2.32;87.73
43683;BME280;29285;52.128;21.060;2022-12-05T00:09:38;101280.69;;;2.27;87.64
43683;BME280;29285;52.128;21.060;2022-12-05T00:14:42;101280.48;;;2.33;87.69
43683;BME280;29285;52.128;21.060;2022-12-05T00:19:43;101278.42;;;2.36;87.76
43683;BME280;29285;52.128;21.060;2022-12-05T00:24:44;101275.80;;;2.34;87.78
43683;BME280;29285;52.128;21.060;2022-12-05T00:29:45;101277.52;;;2.34;87.78
43683;BME280;29285;52.128;21.060;2022-12-05T00:34:47;101266.72;;;2.31;87.79
43683;BME280;29285;52.128;21.060;2022-12-05T00:39:48;101269.23;;;2.30;87.74
43683;BME280;29285;52.128;21.060;2022-12-05T00:44:49;101273.86;;;2.27;87.68
43683;BME280;29285;52.128;21.060;2022-12-05T00:49:50;101274.00;;;2.32;87.73
43683;BME280;29285;52.128;21.060;2022-12-05T00:54:52;101264.30;;;2.36;87.78
43683;BME280;29285;52.128;21.060;2022-12-05T00:59:53;101264.03;;;2.41;87.85
43683;BME280;29285;52.128;21.060;2022-12-05T01:04:54;101273.14;;;2.44;87.87
43683;BME280;29285;52.128;21.060;2022-12-05T01:09:55;101271.85;;;2.44;87.85
43683;BME280;29285;52.128;21.060;2022-12-05T01:14:57;101257.80;;;2.47;87.84
43683;BME280;29285;52.128;21.060;2022-12-05T01:19:58;101262.59;;;2.49;87.81
43683;BME280;29285;52.128;21.060;2022-12-05T01:24:59;101260.58;;;2.41;87.72
43683;BME280;29285;52.128;21.060;2022-12-05T01:30:00;101243.73;;;2.36;87.64
43683;BME280;29285;52.128;21.060;2022-12-05T01:35:02;101243.17;;;2.32;87.56
43683;BME280;29285;52.128;21.060;2022-12-05T01:40:04;101241.44;;;2.31;87.51
43683;BME280;29285;52.128;21.060;2022-12-05T01:45:15;101240.09;;;2.29;87.49
43683;BME280;29285;52.128;21.060;2022-12-05T01:50:18;101243.61;;;2.31;87.46
43683;BME280;29285;52.128;21.060;2022-12-05T01:55:20;101244.91;;;2.33;87.49
43683;BME280;29285;52.128;21.060;2022-12-05T02:00:22;101242.91;;;2.37;87.51
43683;BME280;29285;52.128;21.060;2022-12-05T02:05:29;101234.11;;;2.43;87.58
43683;BME280;29285;52.128;21.060;2022-12-05T02:10:37;101229.08;;;2.46;87.60
43683;BME280;29285;52.128;21.060;2022-12-05T02:15:48;101225.41;;;2.53;87.65
43683;BME280;29285;52.128;21.060;2022-12-05T02:37:02;101198.27;;;2.33;87.40
43683;BME280;29285;52.128;21.060;2022-12-05T02:42:21;101213.44;;;2.25;87.24
43683;BME280;29285;52.128;21.060;2022-12-05T02:47:29;101209.02;;;2.21;87.19
43683;BME280;29285;52.128;21.060;2022-12-05T02:52:33;101196.18;;;2.21;87.15
43683;BME280;29285;52.128;21.060;2022-12-05T02:57:36;101197.02;;;2.20;87.15
43683;BME280;29285;52.128;21.060;2022-12-05T03:02:38;101181.97;;;2.18;87.11
43683;BME280;29285;52.128;21.060;2022-12-05T03:07:42;101173.44;;;2.19;87.11
43683;BME280;29285;52.128;21.060;2022-12-05T03:12:52;101166.91;;;2.16;87.11
43683;BME280;29285;52.128;21.060;2022-12-05T03:17:57;101148.80;;;2.11;87.01
43683;BME280;29285;52.128;21.060;2022-12-05T03:23:11;101157.27;;;2.09;86.97
43683;BME280;29285;52.128;21.060;2022-12-05T03:33:47;101152.54;;;2.08;86.97
43683;BME280;29285;52.128;21.060;2022-12-05T03:44:05;101175.66;;;2.08;86.96
43683;BME280;29285;52.128;21.060;2022-12-05T03:49:31;101186.28;;;2.19;87.10
43683;BME280;29285;52.128;21.060;2022-12-05T03:54:41;101191.88;;;2.20;87.13
43683;BME280;29285;52.128;21.060;2022-12-05T03:59:50;101203.37;;;2.19;87.13
43683;BME280;29285;52.128;21.060;2022-12-05T04:10:25;101202.50;;;2.31;87.23
43683;BME280;29285;52.128;21.060;2022-12-05T04:15:29;101180.10;;;2.27;87.21
43683;BME280;29285;52.128;21.060;2022-12-05T04:20:38;101169.20;;;2.21;87.10
43683;BME280;29285;52.128;21.060;2022-12-05T04:26:12;101163.11;;;2.18;87.03
43683;BME280;29285;52.128;21.060;2022-12-05T04:31:33;101161.83;;;2.18;86.96
43683;BME280;29285;52.128;21.060;2022-12-05T04:36:49;101159.98;;;2.14;86.89
43683;BME280;29285;52.128;21.060;2022-12-05T04:41:59;101162.49;;;2.12;86.86
43683;BME280;29285;52.128;21.060;2022-12-05T04:47:07;101164.55;;;2.09;86.81
43683;BME280;29285;52.128;21.060;2022-12-05T04:52:10;101164.34;;;2.16;86.84
43683;BME280;29285;52.128;21.060;2022-12-05T04:57:24;101160.36;;;2.11;86.79
43683;BME280;29285;52.128;21.060;2022-12-05T05:03:19;101158.43;;;2.19;86.84
43683;BME280;29285;52.128;21.060;2022-12-05T05:07:49;101154.90;;;2.15;86.82
43683;BME280;29285;52.128;21.060;2022-12-05T05:12:49;101154.52;;;2.17;86.81
43683;BME280;29285;52.128;21.060;2022-12-05T05:17:51;101157.65;;;2.21;86.85
43683;BME280;29285;52.128;21.060;2022-12-05T05:22:56;101157.31;;;2.23;86.87
43683;BME280;29285;52.128;21.060;2022-12-05T05:27:58;101167.53;;;2.22;86.82
43683;BME280;29285;52.128;21.060;2022-12-05T05:32:59;101174.08;;;2.27;86.85
43683;BME280;29285;52.128;21.060;2022-12-05T05:38:00;101177.34;;;2.21;86.78
43683;BME280;29285;52.128;21.060;2022-12-05T05:43:02;101189.87;;;2.24;86.72
43683;BME280;29285;52.128;21.060;2022-12-05T05:48:04;101191.81;;;2.19;86.65
43683;BME280;29285;52.128;21.060;2022-12-05T05:53:05;101189.81;;;2.23;86.62
43683;BME280;29285;52.128;21.060;2022-12-05T05:58:07;101182.22;;;2.26;86.64
43683;BME280;29285;52.128;21.060;2022-12-05T06:03:09;101178.31;;;2.24;86.61
43683;BME280;29285;52.128;21.060;2022-12-05T06:08:11;101171.72;;;2.20;86.53
43683;BME280;29285;52.128;21.060;2022-12-05T06:13:12;101175.06;;;2.17;86.50
43683;BME280;29285;52.128;21.060;2022-12-05T06:18:13;101179.56;;;2.10;86.40
43683;BME280;29285;52.128;21.060;2022-12-05T06:23:15;101170.68;;;2.13;86.38
43683;BME280;29285;52.128;21.060;2022-12-05T06:28:17;101174.72;;;2.19;86.48
43683;BME280;29285;52.128;21.060;2022-12-05T06:33:19;101165.92;;;2.25;86.52
43683;BME280;29285;52.128;21.060;2022-12-05T06:38:20;101169.91;;;2.30;86.58
43683;BME280;29285;52.128;21.060;2022-12-05T06:43:21;101165.87;;;2.24;86.49
43683;BME280;29285;52.128;21.060;2022-12-05T06:48:23;101168.48;;;2.25;86.46
43683;BME280;29285;52.128;21.060;2022-12-05T06:53:24;101163.73;;;2.23;86.44
43683;BME280;29285;52.128;21.060;2022-12-05T06:58:26;101174.19;;;2.30;86.44
43683;BME280;29285;52.128;21.060;2022-12-05T07:03:28;101164.92;;;2.35;86.51
43683;BME280;29285;52.128;21.060;2022-12-05T07:08:29;101178.68;;;2.37;86.54
43683;BME280;29285;52.128;21.060;2022-12-05T07:13:30;101178.68;;;2.37;86.54
43683;BME280;29285;52.128;21.060;2022-12-05T07:18:33;101171.16;;;2.43;86.60
43683;BME280;29285;52.128;21.060;2022-12-05T07:23:35;101170.36;;;2.44;86.61
43683;BME280;29285;52.128;21.060;2022-12-05T07:28:36;101169.20;;;2.49;86.65
43683;BME280;29285;52.128;21.060;2022-12-05T07:33:38;101171.72;;;2.47;86.61
43683;BME280;29285;52.128;21.060;2022-12-05T07:38:40;101165.78;;;2.48;86.58
43683;BME280;29285;52.128;21.060;2022-12-05T07:43:42;101154.67;;;2.49;86.58
43683;BME280;29285;52.128;21.060;2022-12-05T07:48:43;101155.58;;;2.51;86.54
43683;BME280;29285;52.128;21.060;2022-12-05T07:53:45;101153.18;;;2.58;86.57
43683;BME280;29285;52.128;21.060;2022-12-05T07:58:48;101152.38;;;2.59;86.54
43683;BME280;29285;52.128;21.060;2022-12-05T08:03:51;101140.84;;;2.60;86.46
43683;BME280;29285;52.128;21.060;2022-12-05T08:08:55;101144.01;;;2.51;86.36
43683;BME280;29285;52.128;21.060;2022-12-05T08:13:57;101139.88;;;2.57;86.34
43683;BME280;29285;52.128;21.060;2022-12-05T08:19:01;101135.02;;;2.51;86.28
43683;BME280;29285;52.128;21.060;2022-12-05T08:24:05;101140.48;;;2.48;86.21
43683;BME280;29285;52.128;21.060;2022-12-05T08:29:14;101140.61;;;2.53;86.20
43683;BME280;29285;52.128;21.060;2022-12-05T08:34:19;101135.84;;;2.65;86.36
43683;BME280;29285;52.128;21.060;2022-12-05T08:39:20;101148.36;;;2.83;86.61
43683;BME280;29285;52.128;21.060;2022-12-05T08:44:22;101160.69;;;3.10;86.83
43683;BME280;29285;52.128;21.060;2022-12-05T08:49:23;101163.74;;;3.28;87.08
43683;BME280;29285;52.128;21.060;2022-12-05T08:54:24;101166.09;;;3.69;87.46
43683;BME280;29285;52.128;21.060;2022-12-05T08:59:26;101152.95;;;4.29;88.14
43683;BME280;29285;52.128;21.060;2022-12-05T09:04:27;101138.96;;;4.57;88.55
43683;BME280;29285;52.128;21.060;2022-12-05T09:09:28;101134.25;;;4.58;88.40
43683;BME280;29285;52.128;21.060;2022-12-05T09:14:30;101132.64;;;4.63;88.07
43683;BME280;29285;52.128;21.060;2022-12-05T09:19:32;101126.72;;;4.68;87.80
43683;BME280;29285;52.128;21.060;2022-12-05T09:24:34;101124.45;;;4.83;87.78
43683;BME280;29285;52.128;21.060;2022-12-05T09:29:35;101109.00;;;5.31;88.21
43683;BME280;29285;52.128;21.060;2022-12-05T09:34:37;101097.48;;;5.36;88.30
43683;BME280;29285;52.128;21.060;2022-12-05T09:39:39;101093.98;;;5.32;88.07
43683;BME280;29285;52.128;21.060;2022-12-05T09:50:22;101083.49;;;5.23;87.22
43683;BME280;29285;52.128;21.060;2022-12-05T09:55:34;101075.55;;;5.12;86.90
43683;BME280;29285;52.128;21.060;2022-12-05T10:00:50;101066.05;;;4.64;86.03
43683;BME280;29285;52.128;21.060;2022-12-05T10:11:25;101071.31;;;4.08;84.96
43683;BME280;29285;52.128;21.060;2022-12-05T10:16:34;101075.27;;;3.94;84.81
43683;BME280;29285;52.128;21.060;2022-12-05T10:21:40;101071.06;;;3.78;84.74
43683;BME280;29285;52.128;21.060;2022-12-05T10:26:53;101066.48;;;3.66;84.70
43683;BME280;29285;52.128;21.060;2022-12-05T10:32:05;101069.80;;;3.61;84.78
43683;BME280;29285;52.128;21.060;2022-12-05T10:37:16;101051.85;;;3.46;84.77
43683;BME280;29285;52.128;21.060;2022-12-05T10:42:31;101045.72;;;3.41;84.81
43683;BME280;29285;52.128;21.060;2022-12-05T10:47:34;101045.14;;;3.35;84.90
43683;BME280;29285;52.128;21.060;2022-12-05T10:52:35;101037.02;;;3.36;84.97
43683;BME280;29285;52.128;21.060;2022-12-05T10:57:37;101033.34;;;3.43;85.12
43683;BME280;29285;52.128;21.060;2022-12-05T11:02:38;101041.92;;;3.44;85.23
43683;BME280;29285;52.128;21.060;2022-12-05T11:07:46;101040.08;;;3.38;85.24
43683;BME280;29285;52.128;21.060;2022-12-05T11:12:50;101031.83;;;3.34;85.23
43683;BME280;29285;52.128;21.060;2022-12-05T11:17:54;101025.00;;;3.36;85.29
43683;BME280;29285;52.128;21.060;2022-12-05T11:22:56;101010.70;;;3.30;85.27
43683;BME280;29285;52.128;21.060;2022-12-05T11:28:21;101007.55;;;3.24;85.25
43683;BME280;29285;52.128;21.060;2022-12-05T11:33:22;101002.80;;;3.22;85.27
43683;BME280;29285;52.128;21.060;2022-12-05T11:38:27;101010.91;;;3.20;85.24
43683;BME280;29285;52.128;21.060;2022-12-05T11:49:31;100982.63;;;3.22;85.28
43683;BME280;29285;52.128;21.060;2022-12-05T11:54:54;100988.00;;;3.31;85.36
43683;BME280;29285;52.128;21.060;2022-12-05T12:00:20;100992.74;;;3.31;85.38
43683;BME280;29285;52.128;21.060;2022-12-05T12:05:46;100988.84;;;3.30;85.39
43683;BME280;29285;52.128;21.060;2022-12-05T12:11:10;100977.75;;;3.33;85.44
43683;BME280;29285;52.128;21.060;2022-12-05T12:16:32;100980.72;;;3.30;85.46
43683;BME280;29285;52.128;21.060;2022-12-05T12:22:03;100980.79;;;3.16;85.32
43683;BME280;29285;52.128;21.060;2022-12-05T12:33:05;100968.75;;;3.33;85.43
43683;BME280;29285;52.128;21.060;2022-12-05T12:49:34;100954.37;;;3.41;85.60
43683;BME280;29285;52.128;21.060;2022-12-05T12:55:11;100945.67;;;3.36;85.54
43683;BME280;29285;52.128;21.060;2022-12-05T13:05:58;100941.77;;;3.34;85.57
43683;BME280;29285;52.128;21.060;2022-12-05T13:11:04;100940.08;;;3.35;85.57
43683;BME280;29285;52.128;21.060;2022-12-05T13:16:09;100941.06;;;3.40;85.59
43683;BME280;29285;52.128;21.060;2022-12-05T13:21:12;100941.23;;;3.48;85.67
43683;BME280;29285;52.128;21.060;2022-12-05T13:26:15;100942.16;;;3.51;85.69
43683;BME280;29285;52.128;21.060;2022-12-05T13:31:17;100933.52;;;3.49;85.66
43683;BME280;29285;52.128;21.060;2022-12-05T13:36:21;100931.73;;;3.45;85.62
43683;BME280;29285;52.128;21.060;2022-12-05T13:41:43;100923.94;;;3.42;85.58
43683;BME280;29285;52.128;21.060;2022-12-05T13:52:30;100922.74;;;3.27;85.41
43683;BME280;29285;52.128;21.060;2022-12-05T14:02:48;100917.55;;;3.43;85.55
43683;BME280;29285;52.128;21.060;2022-12-05T14:07:54;100913.33;;;3.47;85.73
43683;BME280;29285;52.128;21.060;2022-12-05T14:12:59;100914.62;;;3.47;85.74
43683;BME280;29285;52.128;21.060;2022-12-05T14:34:22;100911.28;;;3.51;85.75
43683;BME280;29285;52.128;21.060;2022-12-05T14:39:30;100898.73;;;3.46;85.73
43683;BME280;29285;52.128;21.060;2022-12-05T14:44:50;100885.30;;;3.40;85.68
43683;BME280;29285;52.128;21.060;2022-12-05T14:55:35;100878.02;;;3.40;85.61
43683;BME280;29285;52.128;21.060;2022-12-05T15:00:37;100872.59;;;3.48;85.67
43683;BME280;29285;52.128;21.060;2022-12-05T15:05:38;100865.77;;;3.49;85.70
43683;BME280;29285;52.128;21.060;2022-12-05T15:10:42;100864.44;;;3.47;85.66
43683;BME280;29285;52.128;21.060;2022-12-05T15:15:51;100848.19;;;3.50;85.65
43683;BME280;29285;52.128;21.060;2022-12-05T15:21:25;100861.46;;;3.49;85.61
43683;BME280;29285;52.128;21.060;2022-12-05T15:26:40;100864.52;;;3.50;85.65
43683;BME280;29285;52.128;21.060;2022-12-05T15:31:54;100856.27;;;3.46;85.61
43683;BME280;29285;52.128;21.060;2022-12-05T15:42:28;100847.27;;;3.46;85.64
43683;BME280;29285;52.128;21.060;2022-12-05T15:47:31;100847.27;;;3.46;85.64
43683;BME280;29285;52.128;21.060;2022-12-05T15:52:42;100838.26;;;3.46;85.66
43683;BME280;29285;52.128;21.060;2022-12-05T15:57:49;100839.91;;;3.42;85.61
43683;BME280;29285;52.128;21.060;2022-12-05T16:03:01;100828.81;;;3.47;85.63
43683;BME280;29285;52.128;21.060;2022-12-05T16:08:01;100831.87;;;3.49;85.65
43683;BME280;29285;52.128;21.060;2022-12-05T16:13:12;100838.78;;;3.52;85.67
43683;BME280;29285;52.128;21.060;2022-12-05T16:18:29;100836.33;;;3.56;85.73
43683;BME280;29285;52.128;21.060;2022-12-05T16:23:32;100829.94;;;3.60;85.74
43683;BME280;29285;52.128;21.060;2022-12-05T16:28:33;100829.93;;;3.58;85.72
43683;BME280;29285;52.128;21.060;2022-12-05T16:33:35;100832.51;;;3.60;85.70
43683;BME280;29285;52.128;21.060;2022-12-05T16:38:37;100825.70;;;3.62;85.70
43683;BME280;29285;52.128;21.060;2022-12-05T16:43:43;100818.88;;;3.64;85.74
43683;BME280;29285;52.128;21.060;2022-12-05T16:48:47;100819.71;;;3.63;85.76
43683;BME280;29285;52.128;21.060;2022-12-05T16:54:07;100808.53;;;3.62;85.73
43683;BME280;29285;52.128;21.060;2022-12-05T16:59:17;100802.38;;;3.54;85.66
43683;BME280;29285;52.128;21.060;2022-12-05T17:04:21;100800.62;;;3.51;85.58
43683;BME280;29285;52.128;21.060;2022-12-05T17:09:22;100801.47;;;3.52;85.56
43683;BME280;29285;52.128;21.060;2022-12-05T17:14:24;100803.23;;;3.54;85.59
43683;BME280;29285;52.128;21.060;2022-12-05T17:19:25;100805.81;;;3.54;85.60
43683;BME280;29285;52.128;21.060;2022-12-05T17:24:28;100800.70;;;3.56;85.57
43683;BME280;29285;52.128;21.060;2022-12-05T17:29:29;100793.90;;;3.60;85.62
43683;BME280;29285;52.128;21.060;2022-12-05T17:34:30;100805.63;;;3.67;85.66
43683;BME280;29285;52.128;21.060;2022-12-05T17:39:31;100795.12;;;3.77;85.81
43683;BME280;29285;52.128;21.060;2022-12-05T17:44:33;100791.29;;;3.79;85.87
43683;BME280;29285;52.128;21.060;2022-12-05T17:49:34;100784.70;;;3.71;85.79
43683;BME280;29285;52.128;21.060;2022-12-05T17:54:35;100784.74;;;3.73;85.79
43683;BME280;29285;52.128;21.060;2022-12-05T17:59:36;100780.41;;;3.70;85.76
43683;BME280;29285;52.128;21.060;2022-12-05T18:04:38;100782.98;;;3.71;85.73
43683;BME280;29285;52.128;21.060;2022-12-05T18:09:39;100776.66;;;3.76;85.75
43683;BME280;29285;52.128;21.060;2022-12-05T18:14:41;100783.50;;;3.76;85.72
43683;BME280;29285;52.128;21.060;2022-12-05T18:19:42;100780.55;;;3.79;85.71
43683;BME280;29285;52.128;21.060;2022-12-05T18:24:43;100797.77;;;3.80;85.67
43683;BME280;29285;52.128;21.060;2022-12-05T18:29:48;100794.38;;;3.84;85.64
43683;BME280;29285;52.128;21.060;2022-12-05T18:34:49;100803.39;;;3.84;85.61
43683;BME280;29285;52.128;21.060;2022-12-05T18:39:50;100793.98;;;3.85;85.59
43683;BME280;29285;52.128;21.060;2022-12-05T18:44:52;100785.00;;;3.87;85.59
43683;BME280;29285;52.128;21.060;2022-12-05T18:49:53;100785.41;;;3.86;85.57
43683;BME280;29285;52.128;21.060;2022-12-05T18:54:55;100776.39;;;3.86;85.60
43683;BME280;29285;52.128;21.060;2022-12-05T18:59:56;100779.34;;;3.82;85.52
43683;BME280;29285;52.128;21.060;2022-12-05T19:04:57;100786.22;;;3.83;85.52
43683;BME280;29285;52.128;21.060;2022-12-05T19:09:58;100792.20;;;3.82;85.50
43683;BME280;29285;52.128;21.060;2022-12-05T19:14:59;100793.09;;;3.84;85.48
43683;BME280;29285;52.128;21.060;2022-12-05T19:20:01;100784.16;;;3.88;85.46
43683;BME280;29285;52.128;21.060;2022-12-05T19:25:03;100777.41;;;3.94;85.51
43683;BME280;29285;52.128;21.060;2022-12-05T19:30:06;100789.04;;;3.97;85.51
43683;BME280;29285;52.128;21.060;2022-12-05T19:35:08;100792.90;;;3.96;85.50
43683;BME280;29285;52.128;21.060;2022-12-05T19:40:11;100788.16;;;3.95;85.46
43683;BME280;29285;52.128;21.060;2022-12-05T19:45:12;100794.52;;;3.91;85.36
43683;BME280;29285;52.128;21.060;2022-12-05T19:50:13;100784.22;;;3.91;85.34
43683;BME280;29285;52.128;21.060;2022-12-05T19:55:15;100790.66;;;3.91;85.35
43683;BME280;29285;52.128;21.060;2022-12-05T20:00:17;100785.44;;;3.88;85.32
43683;BME280;29285;52.128;21.060;2022-12-05T20:05:19;100774.26;;;3.86;85.29
43683;BME280;29285;52.128;21.060;2022-12-05T20:10:20;100766.13;;;3.88;85.27
43683;BME280;29285;52.128;21.060;2022-12-05T20:15:21;100763.63;;;3.91;85.26
43683;BME280;29285;52.128;21.060;2022-12-05T20:20:23;100763.66;;;3.94;85.28
43683;BME280;29285;52.128;21.060;2022-12-05T20:25:24;100754.71;;;3.97;85.30
43683;BME280;29285;52.128;21.060;2022-12-05T20:30:26;100752.16;;;4.24;85.51
43683;BME280;29285;52.128;21.060;2022-12-05T20:35:27;100744.58;;;4.33;85.94
43683;BME280;29285;52.128;21.060;2022-12-05T20:40:29;100735.41;;;4.24;85.88
43683;BME280;29285;52.128;21.060;2022-12-05T20:45:30;100729.28;;;4.16;85.65
43683;BME280;29285;52.128;21.060;2022-12-05T20:50:33;100734.37;;;4.13;85.47
43683;BME280;29285;52.128;21.060;2022-12-05T20:55:34;100729.63;;;4.10;85.36
43683;BME280;29285;52.128;21.060;2022-12-05T21:00:35;100733.11;;;4.14;85.34
43683;BME280;29285;52.128;21.060;2022-12-05T21:05:37;100729.72;;;4.17;85.33
43683;BME280;29285;52.128;21.060;2022-12-05T21:10:44;100736.09;;;4.14;85.24
43683;BME280;29285;52.128;21.060;2022-12-05T21:15:45;100725.70;;;4.07;85.19
43683;BME280;29285;52.128;21.060;2022-12-05T21:20:57;100721.33;;;4.03;85.13
43683;BME280;29285;52.128;21.060;2022-12-05T21:26:04;100716.55;;;4.00;85.11
43683;BME280;29285;52.128;21.060;2022-12-05T21:31:11;100720.79;;;3.97;85.11
43683;BME280;29285;52.128;21.060;2022-12-05T21:36:15;100714.35;;;3.96;85.08
43683;BME280;29285;52.128;21.060;2022-12-05T21:41:16;100716.59;;;4.01;85.11
43683;BME280;29285;52.128;21.060;2022-12-05T21:46:17;100715.77;;;4.04;85.12
43683;BME280;29285;52.128;21.060;2022-12-05T21:51:21;100712.84;;;4.09;85.14
43683;BME280;29285;52.128;21.060;2022-12-05T21:56:23;100704.30;;;4.12;85.21
43683;BME280;29285;52.128;21.060;2022-12-05T22:01:26;100709.02;;;4.10;85.20
43683;BME280;29285;52.128;21.060;2022-12-05T22:06:28;100707.23;;;4.08;85.18
43683;BME280;29285;52.128;21.060;2022-12-05T22:11:32;100710.15;;;4.01;85.11
43683;BME280;29285;52.128;21.060;2022-12-05T22:16:34;100700.59;;;3.95;85.03
43683;BME280;29285;52.128;21.060;2022-12-05T22:21:35;100691.95;;;3.92;85.01
43683;BME280;29285;52.128;21.060;2022-12-05T22:26:37;100696.26;;;3.93;84.99
43683;BME280;29285;52.128;21.060;2022-12-05T22:31:38;100688.00;;;3.87;84.94
43683;BME280;29285;52.128;21.060;2022-12-05T22:36:39;100685.92;;;3.91;84.88
43683;BME280;29285;52.128;21.060;2022-12-05T22:41:41;100674.78;;;3.91;84.88
43683;BME280;29285;52.128;21.060;2022-12-05T22:46:42;100663.66;;;3.95;84.90
43683;BME280;29285;52.128;21.060;2022-12-05T22:51:43;100663.22;;;3.94;84.93
43683;BME280;29285;52.128;21.060;2022-12-05T22:56:44;100652.92;;;3.94;84.96
43683;BME280;29285;52.128;21.060;2022-12-05T23:01:45;100657.19;;;3.92;84.99
43683;BME280;29285;52.128;21.060;2022-12-05T23:06:47;100656.75;;;3.91;84.99
43683;BME280;29285;52.128;21.060;2022-12-05T23:11:48;100653.27;;;3.89;84.97
43683;BME280;29285;52.128;21.060;2022-12-05T23:16:50;100638.23;;;3.87;84.97
43683;BME280;29285;52.128;21.060;2022-12-05T23:21:51;100642.12;;;3.90;84.99
43683;BME280;29285;52.128;21.060;2022-12-05T23:26:52;100654.65;;;3.95;85.02
43683;BME280;29285;52.128;21.060;2022-12-05T23:31:54;100649.91;;;3.93;85.00
43683;BME280;29285;52.128;21.060;2022-12-05T23:36:55;100637.88;;;3.92;84.95
43683;BME280;29285;52.128;21.060;2022-12-05T23:41:56;100643.91;;;3.94;84.94
43683;BME280;29285;52.128;21.060;2022-12-05T23:46:58;100636.97;;;3.88;84.93
43683;BME280;29285;52.128;21.060;2022-12-05T23:51:59;100635.66;;;3.87;84.90
43683;BME280;29285;52.128;21.060;2022-12-05T23:57:00;100633.11;;;3.90;84.98
